Main page
METAR-TAF:

METAR-TAF

Airports :

Irkutsk, Russia

International Airport Irkutsk

latitude: 52-16N, longitude: 104-19E, elevation: 513 m

Current weather observation

The report was made 22 hours and 11 minutes ago, at 15:00 UTC
Wind 4 kt from the North
Temperature -13°C
Humidity 61%
Pressure 1021 hPa
Visibility 10 km or more
no clouds below 1500 m and no cumulonimbus

METAR: UIII 201500Z 01002MPS CAVOK M13/M19 Q1021 R30/60D NOSIG RMK QFE721/0961

Time: 21:11 (13:11 UTC)

Forecast

The report was made 23 hours and 11 minutes ago, at 14:00 UTC
Forecast valid from 20 at 15 UTC to 21 at 15 UTC
Wind 6 kt from the West/Northwest
Visibility 10 km or more
Becoming
from 20 at 19 UTC to 20 at 20 UTC
Broken clouds at a height of 1200 ft, Cumulonimbus.
Temporary
from 20 at 20 UTC to 21 at 12 UTC
Visibility: 1100 m
snow showers

TAF: UIII 201400Z 2015/2115 30003MPS 9999 NSC BECMG 2019/2020 BKN012CB TEMPO 2020/2112 1100 SHSN

Weather observations and forecasts of more than 4000 airports (METAR and TAF reports).

The available stations are represented by yellow and red dots on the map.

Hover mouse over dot to see the name of the station.

Then click to see weather observations and forecasts.

To change the map : click on the green buttons with a black cross to zoom in, on the green button with a dash to zoom out, or on the green arrows for adjacent maps.


METAR-TAF: